createdAt,value
2019-05-23T00:00:49.370Z,7.90
2019-05-23T00:03:21.250Z,8.27
2019-05-23T00:05:54.683Z,9.17
2019-05-23T00:08:28.060Z,8.83
2019-05-23T00:11:15.428Z,8.83
2019-05-23T00:13:49.784Z,8.13
2019-05-23T00:16:23.512Z,8.53
2019-05-23T00:18:53.782Z,8.77
2019-05-23T00:21:24.174Z,8.97
2019-05-23T00:23:54.616Z,9.47
2019-05-23T00:26:26.282Z,9.90
2019-05-23T00:29:09.068Z,9.30
2019-05-23T00:31:32.467Z,9.87
2019-05-23T00:34:01.958Z,9.77
2019-05-23T00:36:32.448Z,9.93
2019-05-23T00:39:03.434Z,9.30
2019-05-23T00:41:32.882Z,10.57
2019-05-23T00:44:02.211Z,9.93
2019-05-23T00:46:31.938Z,9.93
2019-05-23T00:49:03.003Z,9.63
2019-05-23T00:51:33.971Z,10.60
2019-05-23T00:54:03.361Z,10.30
2019-05-23T00:56:33.610Z,9.87
2019-05-23T00:59:03.983Z,10.67
2019-05-23T01:01:34.372Z,9.87
2019-05-23T01:04:05.260Z,10.63
2019-05-23T01:06:36.096Z,10.27
2019-05-23T01:09:07.943Z,10.93
2019-05-23T01:11:38.117Z,9.63
2019-05-23T01:14:08.475Z,11.37
2019-05-23T01:16:38.848Z,9.90
2019-05-23T01:19:09.018Z,10.73
2019-05-23T01:21:59.445Z,10.27
2019-05-23T01:24:39.558Z,10.70
2019-05-23T01:27:10.375Z,10.60
2019-05-23T01:29:49.679Z,9.83
2019-05-23T01:32:29.231Z,10.53
2019-05-23T01:34:59.095Z,11.10
2019-05-23T01:37:28.384Z,10.80
2019-05-23T01:39:58.447Z,10.37
2019-05-23T01:42:28.248Z,11.13
2019-05-23T01:44:58.615Z,10.53
2019-05-23T01:47:29.342Z,10.53
2019-05-23T01:49:59.963Z,11.33
2019-05-23T01:52:29.874Z,11.27
2019-05-23T01:55:00.219Z,10.83
2019-05-23T01:57:30.196Z,10.40
2019-05-23T02:00:10.018Z,10.63
2019-05-23T02:02:30.936Z,10.17
2019-05-23T02:05:00.393Z,10.20
2019-05-23T02:07:30.665Z,9.47
2019-05-23T02:10:00.255Z,8.43
2019-05-23T02:12:30.862Z,9.40
2019-05-23T02:15:00.695Z,9.20
2019-05-23T02:17:31.629Z,9.47
2019-05-23T02:20:01.740Z,10.03
2019-05-23T02:22:32.255Z,10.47
2019-05-23T02:25:02.838Z,10.77
2019-05-23T02:27:32.900Z,9.40
2019-05-23T02:30:02.513Z,11.37
2019-05-23T02:32:33.565Z,12.97
2019-05-23T02:35:06.457Z,11.33
2019-05-23T02:37:57.254Z,11.90
2019-05-23T02:40:34.000Z,11.87
2019-05-23T02:43:05.342Z,12.00
2019-05-23T02:45:41.641Z,11.93
2019-05-23T02:48:17.744Z,11.93
2019-05-23T02:50:53.106Z,11.60
2019-05-23T02:53:27.193Z,12.03
2019-05-23T02:55:59.562Z,11.43
2019-05-23T02:58:38.799Z,12.60
2019-05-23T03:01:42.733Z,11.40
2019-05-23T03:04:18.763Z,12.47
2019-05-23T03:06:48.205Z,11.47
2019-05-23T03:09:21.328Z,12.13
2019-05-23T03:11:56.546Z,11.30
2019-05-23T03:14:26.946Z,10.43
2019-05-23T03:16:59.929Z,11.47
2019-05-23T03:19:39.324Z,11.57
2019-05-23T03:22:45.013Z,12.10
2019-05-23T03:25:55.450Z,10.67
2019-05-23T03:28:27.418Z,12.03
2019-05-23T03:31:25.201Z,11.00
2019-05-23T03:33:32.652Z,10.50
2019-05-23T03:36:02.380Z,12.40
2019-05-23T03:38:32.097Z,10.83
2019-05-23T03:41:02.124Z,11.20
2019-05-23T03:43:31.688Z,9.17
2019-05-23T03:46:05.127Z,9.37
2019-05-23T03:48:34.597Z,9.50
2019-05-23T03:51:05.064Z,9.67
2019-05-23T03:53:35.874Z,9.10
2019-05-23T03:56:05.885Z,9.30
2019-05-23T03:58:35.259Z,8.80
2019-05-23T04:01:07.533Z,9.57
2019-05-23T04:03:40.164Z,10.60
2019-05-23T04:06:09.590Z,9.67
2019-05-23T04:08:38.988Z,9.23
2019-05-23T04:11:08.244Z,11.83
2019-05-23T04:13:37.792Z,10.87
2019-05-23T04:16:07.257Z,10.23
2019-05-23T04:18:37.454Z,11.17
2019-05-23T04:21:06.942Z,10.87
2019-05-23T04:23:36.332Z,10.53
2019-05-23T04:26:06.101Z,10.93
2019-05-23T04:28:35.464Z,10.80
2019-05-23T04:31:04.730Z,10.07
2019-05-23T04:33:34.777Z,10.30
2019-05-23T04:36:04.400Z,10.27
2019-05-23T04:38:36.383Z,10.20
2019-05-23T04:41:06.005Z,9.67
2019-05-23T04:43:35.333Z,8.93
2019-05-23T04:46:04.899Z,8.50
2019-05-23T04:48:34.437Z,8.97
2019-05-23T04:51:05.739Z,8.60
2019-05-23T04:53:35.392Z,9.87
2019-05-23T04:56:04.824Z,9.63
2019-05-23T04:58:34.144Z,9.60
2019-05-23T05:01:04.255Z,8.83
2019-05-23T05:03:33.632Z,8.57
2019-05-23T05:06:03.617Z,9.37
2019-05-23T05:08:32.961Z,8.80
2019-05-23T05:11:02.929Z,7.80
2019-05-23T05:13:32.446Z,9.37
2019-05-23T05:16:01.837Z,9.20
2019-05-23T05:18:31.565Z,9.43
2019-05-23T05:21:00.851Z,9.07
2019-05-23T05:23:30.296Z,9.60
2019-05-23T05:25:59.901Z,9.33
2019-05-23T05:28:29.189Z,9.67
2019-05-23T05:30:58.628Z,9.77
2019-05-23T05:33:28.400Z,9.57
2019-05-23T05:35:57.597Z,9.50
2019-05-23T05:38:28.985Z,11.20
2019-05-23T05:40:58.072Z,9.60
2019-05-23T05:43:27.396Z,10.13
2019-05-23T05:45:56.695Z,9.90
2019-05-23T05:48:26.574Z,10.10
2019-05-23T05:50:55.917Z,9.60
2019-05-23T05:53:25.570Z,8.60
2019-05-23T05:55:54.877Z,8.90
2019-05-23T05:58:24.691Z,8.73
2019-05-23T06:01:00.864Z,8.93
2019-05-23T06:03:30.693Z,8.50
2019-05-23T06:06:37.116Z,7.90
2019-05-23T06:09:15.820Z,8.33
2019-05-23T06:11:45.773Z,9.70
2019-05-23T06:14:15.126Z,8.30
2019-05-23T06:16:45.193Z,7.77
2019-05-23T06:19:14.868Z,8.50
2019-05-23T06:21:46.177Z,9.17
2019-05-23T06:24:16.318Z,9.00
2019-05-23T06:26:46.220Z,8.13
2019-05-23T06:29:15.656Z,9.20
2019-05-23T06:31:45.429Z,9.93
2019-05-23T06:34:15.304Z,10.10
2019-05-23T06:36:45.264Z,10.47
2019-05-23T06:39:14.872Z,9.63
2019-05-23T06:41:44.580Z,8.90
2019-05-23T06:44:15.740Z,8.60
2019-05-23T06:46:45.121Z,7.87
2019-05-23T06:49:14.589Z,7.77
2019-05-23T06:51:44.028Z,8.00
2019-05-23T06:54:13.485Z,7.47
2019-05-23T06:56:43.031Z,7.37
2019-05-23T06:59:12.430Z,7.67
2019-05-23T07:01:41.896Z,7.77
2019-05-23T07:04:11.156Z,7.67
2019-05-23T07:06:40.462Z,7.70
2019-05-23T07:09:15.020Z,7.00
2019-05-23T07:11:44.351Z,7.67
2019-05-23T07:14:13.762Z,8.00
2019-05-23T07:16:43.304Z,7.83
2019-05-23T07:19:13.484Z,7.43
2019-05-23T07:21:42.797Z,8.13
2019-05-23T07:24:12.269Z,7.23
2019-05-23T07:26:41.822Z,7.20
2019-05-23T07:29:12.952Z,7.37
2019-05-23T07:31:42.243Z,7.70
2019-05-23T07:34:11.920Z,7.13
2019-05-23T07:36:41.435Z,7.30
2019-05-23T07:39:11.788Z,7.27
2019-05-23T07:41:42.261Z,8.53
2019-05-23T07:44:12.065Z,8.03
2019-05-23T07:46:41.433Z,7.90
2019-05-23T07:49:10.904Z,9.20
2019-05-23T07:51:40.265Z,9.27
2019-05-23T07:54:27.481Z,8.53
2019-05-23T07:56:57.334Z,9.10
2019-05-23T07:59:27.123Z,8.57
2019-05-23T08:02:10.866Z,9.07
2019-05-23T08:04:40.279Z,8.70
2019-05-23T08:07:11.440Z,9.93
2019-05-23T08:09:41.235Z,10.53
2019-05-23T08:12:10.760Z,10.50
2019-05-23T08:14:40.073Z,9.87
2019-05-23T08:17:09.408Z,9.60
2019-05-23T08:19:49.137Z,9.77
2019-05-23T08:22:09.802Z,10.40
2019-05-23T08:24:39.315Z,9.87
2019-05-23T08:27:08.810Z,9.10
2019-05-23T08:29:39.792Z,9.50
2019-05-23T08:32:09.477Z,9.83
2019-05-23T08:34:42.182Z,9.07
2019-05-23T08:37:11.586Z,10.33
2019-05-23T08:39:41.729Z,9.93
2019-05-23T08:42:12.215Z,10.10
2019-05-23T08:44:42.253Z,10.80
2019-05-23T08:47:11.708Z,12.10
2019-05-23T08:49:41.389Z,9.40
2019-05-23T08:52:10.729Z,10.10
2019-05-23T08:54:40.629Z,11.17
2019-05-23T08:57:11.000Z,10.47
2019-05-23T08:59:40.638Z,13.07
2019-05-23T09:02:11.879Z,11.37
2019-05-23T09:05:02.480Z,12.23
2019-05-23T09:07:13.815Z,13.17
2019-05-23T09:09:43.878Z,11.40
2019-05-23T09:12:13.626Z,13.17
2019-05-23T09:14:42.890Z,13.40
2019-05-23T09:17:12.794Z,12.67
2019-05-23T09:19:42.124Z,10.70
2019-05-23T09:22:11.540Z,10.33
2019-05-23T09:24:40.968Z,10.70
2019-05-23T09:27:10.616Z,9.90
2019-05-23T09:29:40.101Z,10.63
2019-05-23T09:32:09.985Z,11.17
2019-05-23T09:34:39.330Z,11.30
2019-05-23T09:37:09.538Z,11.27
2019-05-23T09:39:40.515Z,8.97
2019-05-23T09:42:12.049Z,11.43
2019-05-23T09:44:40.856Z,9.60
2019-05-23T09:47:10.232Z,10.30
2019-05-23T09:49:39.543Z,9.73
2019-05-23T09:52:09.694Z,9.90
2019-05-23T09:54:39.398Z,11.07
2019-05-23T09:57:08.837Z,10.67
2019-05-23T09:59:38.407Z,11.80
2019-05-23T10:02:08.326Z,10.00
2019-05-23T10:04:37.831Z,10.43
2019-05-23T10:07:07.174Z,11.90
2019-05-23T10:09:36.552Z,11.23
2019-05-23T10:12:05.885Z,10.63
2019-05-23T10:14:36.256Z,13.70
2019-05-23T10:17:05.784Z,12.03
2019-05-23T10:19:35.677Z,12.50
2019-05-23T10:22:06.046Z,10.97
2019-05-23T10:24:35.473Z,14.50
2019-05-23T10:27:06.565Z,15.00
2019-05-23T10:29:35.871Z,13.57
2019-05-23T10:32:07.672Z,14.97
2019-05-23T10:34:37.029Z,12.13
2019-05-23T10:37:08.069Z,12.40
2019-05-23T10:39:37.350Z,15.10
2019-05-23T10:42:06.713Z,15.93
2019-05-23T10:44:36.071Z,15.93
2019-05-23T10:47:05.388Z,16.07
2019-05-23T10:49:35.126Z,12.37
2019-05-23T10:52:04.995Z,13.80
2019-05-23T10:54:34.346Z,14.17
2019-05-23T10:57:03.806Z,15.17
2019-05-23T10:59:33.052Z,16.13
2019-05-23T11:02:02.705Z,16.43
2019-05-23T11:04:32.108Z,14.10
2019-05-23T11:07:02.826Z,13.77
2019-05-23T11:09:37.996Z,14.23
2019-05-23T11:12:04.258Z,15.13
2019-05-23T11:14:33.980Z,15.00
2019-05-23T11:17:03.739Z,12.23
2019-05-23T11:19:33.143Z,13.87
2019-05-23T11:22:02.445Z,11.97
2019-05-23T11:24:31.785Z,12.23
2019-05-23T11:27:01.184Z,12.90
2019-05-23T11:29:30.541Z,12.80
2019-05-23T11:31:59.902Z,11.13
2019-05-23T11:34:30.110Z,11.67
2019-05-23T11:36:59.413Z,12.30
2019-05-23T11:39:29.246Z,10.73
2019-05-23T11:41:58.532Z,11.83
2019-05-23T11:44:27.896Z,12.93
2019-05-23T11:46:57.640Z,11.67
2019-05-23T11:49:27.166Z,11.70
2019-05-23T11:51:57.033Z,12.30
2019-05-23T11:54:26.785Z,13.00
2019-05-23T11:56:56.849Z,11.90
2019-05-23T11:59:26.102Z,12.67
2019-05-23T12:02:17.322Z,12.90
2019-05-23T12:04:46.763Z,12.80
2019-05-23T12:07:23.803Z,12.43
2019-05-23T12:09:53.253Z,12.83
2019-05-23T12:12:22.591Z,12.60
2019-05-23T12:14:51.829Z,14.13
2019-05-23T12:17:22.815Z,12.53
2019-05-23T12:19:52.328Z,13.07
2019-05-23T12:22:23.428Z,11.73
2019-05-23T12:24:52.925Z,13.53
2019-05-23T12:27:22.307Z,14.83
2019-05-23T12:29:51.926Z,13.80
2019-05-23T12:32:21.544Z,14.13
2019-05-23T12:35:08.690Z,12.67
2019-05-23T12:37:22.435Z,14.47
2019-05-23T12:39:52.222Z,13.33
2019-05-23T12:42:21.798Z,13.03
2019-05-23T12:44:51.154Z,11.73
2019-05-23T12:47:27.970Z,12.73
2019-05-23T12:50:02.072Z,12.40
2019-05-23T12:52:32.919Z,14.70
2019-05-23T12:55:02.630Z,12.43
2019-05-23T12:57:32.513Z,13.03
2019-05-23T13:00:02.099Z,12.13
2019-05-23T13:02:31.553Z,11.07
2019-05-23T13:05:00.933Z,11.63
2019-05-23T13:07:36.267Z,12.83
2019-05-23T13:10:01.709Z,10.67
2019-05-23T13:12:31.711Z,11.07
2019-05-23T13:15:01.785Z,12.73
2019-05-23T13:17:31.060Z,11.70
2019-05-23T13:20:00.345Z,11.50
2019-05-23T13:22:29.738Z,11.20
2019-05-23T13:24:59.477Z,11.17
2019-05-23T13:27:28.957Z,11.17
2019-05-23T13:29:58.308Z,29.23
2019-05-23T13:32:27.810Z,10.83
2019-05-23T13:34:57.193Z,10.43
2019-05-23T13:37:26.484Z,10.93
2019-05-23T13:39:55.765Z,11.30
2019-05-23T13:42:25.445Z,9.83
2019-05-23T13:44:54.624Z,10.73
2019-05-23T13:47:23.910Z,11.07
2019-05-23T13:49:53.241Z,10.67
2019-05-23T13:52:22.505Z,9.80
2019-05-23T13:54:51.873Z,10.67
2019-05-23T13:57:21.653Z,9.47
2019-05-23T13:59:51.023Z,10.67
2019-05-23T14:02:20.538Z,11.67
2019-05-23T14:04:50.155Z,10.63
2019-05-23T14:07:20.561Z,11.60
2019-05-23T14:09:50.246Z,12.57
2019-05-23T14:12:21.416Z,11.90
2019-05-23T14:14:51.950Z,11.70
2019-05-23T14:17:42.875Z,13.13
2019-05-23T14:20:14.143Z,10.87
2019-05-23T14:22:49.836Z,12.37
2019-05-23T14:25:20.538Z,10.50
2019-05-23T14:28:08.574Z,11.20
2019-05-23T14:30:46.089Z,10.97
2019-05-23T14:33:38.557Z,10.03
2019-05-23T14:36:14.968Z,10.40
2019-05-23T14:38:45.028Z,10.40
2019-05-23T14:41:14.846Z,10.23
2019-05-23T14:43:46.244Z,9.33
2019-05-23T14:46:17.340Z,10.83
2019-05-23T14:49:13.766Z,11.10
2019-05-23T14:52:01.808Z,9.70
2019-05-23T14:54:44.497Z,15.03
2019-05-23T14:57:14.313Z,9.87
2019-05-23T14:59:44.089Z,8.03
2019-05-23T15:02:17.679Z,10.10
2019-05-23T15:04:48.049Z,8.80
2019-05-23T15:07:17.521Z,9.53
2019-05-23T15:09:46.889Z,9.47
2019-05-23T15:12:16.703Z,9.40
2019-05-23T15:14:45.997Z,10.07
2019-05-23T15:17:15.485Z,9.50
2019-05-23T15:19:46.253Z,9.40
2019-05-23T15:22:16.598Z,9.87
2019-05-23T15:24:46.099Z,10.00
2019-05-23T15:27:15.484Z,11.80
2019-05-23T15:29:45.658Z,10.47
2019-05-23T15:32:15.148Z,10.70
2019-05-23T15:34:44.481Z,10.40
2019-05-23T15:37:14.936Z,10.33
2019-05-23T15:39:44.232Z,10.30
2019-05-23T15:42:13.589Z,8.10
2019-05-23T15:44:43.016Z,9.70
2019-05-23T15:47:13.272Z,9.53
2019-05-23T15:49:45.626Z,9.83
2019-05-23T15:52:26.492Z,8.47
2019-05-23T15:55:11.280Z,8.83
2019-05-23T15:57:48.590Z,9.77
2019-05-23T16:00:35.556Z,8.33
2019-05-23T16:03:15.349Z,9.10
2019-05-23T16:05:44.977Z,9.80
2019-05-23T16:08:14.479Z,8.57
2019-05-23T16:10:44.475Z,9.30
2019-05-23T16:13:14.000Z,8.03
2019-05-23T16:15:45.609Z,8.60
2019-05-23T16:18:15.263Z,9.63
2019-05-23T16:20:45.028Z,8.70
2019-05-23T16:23:14.432Z,9.77
2019-05-23T16:25:43.712Z,9.77
2019-05-23T16:28:13.127Z,8.60
2019-05-23T16:30:44.142Z,8.10
2019-05-23T16:33:15.085Z,8.40
2019-05-23T16:35:46.399Z,9.57
2019-05-23T16:38:16.995Z,9.07
2019-05-23T16:40:46.409Z,8.37
2019-05-23T16:43:15.970Z,8.10
2019-05-23T16:45:45.224Z,8.53
2019-05-23T16:48:14.589Z,8.47
2019-05-23T16:50:43.919Z,8.27
2019-05-23T16:53:13.840Z,8.43
2019-05-23T16:55:52.427Z,8.30
2019-05-23T16:58:43.749Z,9.90
2019-05-23T17:01:56.059Z,7.20
2019-05-23T17:04:24.907Z,8.00
2019-05-23T17:06:59.835Z,7.40
2019-05-23T17:10:07.497Z,8.07
2019-05-23T17:12:42.207Z,6.97
2019-05-23T17:15:26.841Z,12.13
2019-05-23T17:18:21.343Z,7.20
2019-05-23T17:21:09.746Z,8.67
2019-05-23T17:23:48.341Z,14.43
2019-05-23T17:26:36.574Z,7.13
2019-05-23T17:29:12.203Z,6.70
2019-05-23T17:31:43.848Z,7.63
2019-05-23T17:34:13.881Z,7.47
2019-05-23T17:36:43.571Z,8.07
2019-05-23T17:39:15.154Z,7.67
2019-05-23T17:41:44.792Z,6.77
2019-05-23T17:44:16.906Z,7.03
2019-05-23T17:46:47.588Z,8.53
2019-05-23T17:49:17.763Z,6.53
2019-05-23T17:51:47.005Z,10.90
2019-05-23T17:54:16.442Z,6.50
2019-05-23T17:56:45.808Z,6.80
2019-05-23T17:59:15.140Z,7.30
2019-05-23T18:01:44.784Z,7.13
2019-05-23T18:04:15.270Z,7.33
2019-05-23T18:06:44.706Z,8.03
2019-05-23T18:09:16.072Z,7.10
2019-05-23T18:11:45.693Z,8.50
2019-05-23T18:14:15.600Z,6.97
2019-05-23T18:16:45.100Z,6.57
2019-05-23T18:19:14.750Z,6.43
2019-05-23T18:21:44.236Z,5.97
2019-05-23T18:24:14.728Z,5.50
2019-05-23T18:26:44.577Z,6.20
2019-05-23T18:29:14.028Z,5.47
2019-05-23T18:31:44.495Z,6.20
2019-05-23T18:34:13.822Z,10.90
2019-05-23T18:36:43.705Z,11.67
2019-05-23T18:39:16.584Z,8.70
2019-05-23T18:41:46.374Z,18.57
2019-05-23T18:44:15.786Z,7.30
2019-05-23T18:46:48.403Z,7.27
2019-05-23T18:49:19.433Z,5.30
2019-05-23T18:51:49.301Z,5.60
2019-05-23T18:54:18.691Z,5.20
2019-05-23T18:56:47.907Z,10.63
2019-05-23T18:59:17.940Z,8.00
2019-05-23T19:01:47.298Z,6.03
2019-05-23T19:04:16.612Z,6.90
2019-05-23T19:06:46.031Z,6.77
2019-05-23T19:09:16.515Z,6.30
2019-05-23T19:11:46.776Z,6.70
2019-05-23T19:14:16.087Z,7.80
2019-05-23T19:16:46.400Z,8.13
2019-05-23T19:19:15.660Z,12.20
2019-05-23T19:21:45.248Z,7.93
2019-05-23T19:24:14.813Z,5.80
2019-05-23T19:26:45.743Z,8.73
2019-05-23T19:29:16.680Z,8.90
2019-05-23T19:31:48.858Z,8.60
2019-05-23T19:34:19.501Z,11.83
2019-05-23T19:36:49.750Z,8.13
2019-05-23T19:39:19.697Z,6.03
2019-05-23T19:41:49.295Z,5.87
2019-05-23T19:44:18.557Z,6.23
2019-05-23T19:46:47.859Z,15.80
2019-05-23T19:49:17.695Z,14.60
2019-05-23T19:51:46.944Z,17.80
2019-05-23T19:54:17.496Z,14.00
2019-05-23T19:56:46.846Z,10.30
2019-05-23T19:59:16.408Z,15.07
2019-05-23T20:01:59.863Z,18.07
2019-05-23T20:04:31.294Z,18.17
2019-05-23T20:07:00.956Z,13.63
2019-05-23T20:09:30.839Z,10.77
2019-05-23T20:12:00.521Z,10.77
2019-05-23T20:14:31.091Z,9.27
2019-05-23T20:17:00.518Z,8.90
2019-05-23T20:19:30.059Z,8.33
2019-05-23T20:21:59.305Z,8.13
2019-05-23T20:24:28.605Z,9.53
2019-05-23T20:26:58.198Z,7.70
2019-05-23T20:29:27.767Z,7.63
2019-05-23T20:31:57.396Z,6.87
2019-05-23T20:34:27.765Z,7.47
2019-05-23T20:36:57.200Z,7.17
2019-05-23T20:39:27.311Z,7.40
2019-05-23T20:42:10.330Z,7.10
2019-05-23T20:44:27.727Z,6.70
2019-05-23T20:46:57.096Z,7.03
2019-05-23T20:49:27.356Z,6.63
2019-05-23T20:51:56.865Z,7.57
2019-05-23T20:54:26.491Z,7.17
2019-05-23T20:56:55.786Z,7.40
2019-05-23T20:59:25.244Z,6.97
2019-05-23T21:01:55.048Z,7.27
2019-05-23T21:04:24.689Z,8.63
2019-05-23T21:06:53.865Z,7.90
2019-05-23T21:09:23.401Z,8.00
2019-05-23T21:11:52.652Z,8.73
2019-05-23T21:14:22.117Z,8.07
2019-05-23T21:16:51.436Z,8.33
2019-05-23T21:19:21.192Z,7.77
2019-05-23T21:21:50.577Z,8.00
2019-05-23T21:24:20.024Z,7.90
2019-05-23T21:26:49.374Z,7.10
2019-05-23T21:29:18.964Z,7.83
2019-05-23T21:31:48.486Z,7.77
2019-05-23T21:34:17.868Z,7.90
2019-05-23T21:36:47.193Z,7.17
2019-05-23T21:39:16.800Z,7.00
2019-05-23T21:41:48.398Z,7.20
2019-05-23T21:44:17.751Z,7.80
2019-05-23T21:46:47.217Z,8.43
2019-05-23T21:49:18.405Z,8.37
2019-05-23T21:51:47.727Z,8.03
2019-05-23T21:54:17.328Z,7.50
2019-05-23T21:56:46.700Z,7.50
2019-05-23T21:59:16.079Z,8.20
2019-05-23T22:01:54.230Z,7.97
2019-05-23T22:04:25.617Z,7.77
2019-05-23T22:06:56.408Z,7.50
2019-05-23T22:09:26.085Z,8.00
2019-05-23T22:11:55.460Z,7.23
2019-05-23T22:14:24.953Z,6.93
2019-05-23T22:16:54.196Z,7.33
2019-05-23T22:19:24.837Z,7.93
2019-05-23T22:21:54.189Z,7.03
2019-05-23T22:24:23.462Z,6.43
2019-05-23T22:26:52.781Z,7.17
2019-05-23T22:29:22.152Z,7.67
2019-05-23T22:31:51.542Z,7.47
2019-05-23T22:34:42.612Z,7.67
2019-05-23T22:37:22.325Z,7.33
2019-05-23T22:39:51.847Z,7.87
2019-05-23T22:42:23.740Z,8.00
2019-05-23T22:44:53.482Z,7.30
2019-05-23T22:47:23.092Z,7.30
2019-05-23T22:49:52.953Z,7.50
2019-05-23T22:52:22.411Z,7.80
2019-05-23T22:54:52.096Z,7.70
2019-05-23T22:57:21.562Z,8.30
2019-05-23T22:59:51.198Z,8.07
2019-05-23T23:02:20.849Z,8.17
2019-05-23T23:04:50.331Z,7.50
2019-05-23T23:07:20.795Z,7.60
2019-05-23T23:09:55.757Z,7.67
2019-05-23T23:12:25.109Z,7.17
2019-05-23T23:14:54.512Z,7.87
2019-05-23T23:17:23.870Z,8.30
2019-05-23T23:19:53.308Z,8.00
2019-05-23T23:22:22.684Z,8.13
2019-05-23T23:24:51.944Z,7.53
2019-05-23T23:27:21.267Z,7.60
2019-05-23T23:29:50.668Z,6.67
2019-05-23T23:32:20.010Z,7.70
2019-05-23T23:34:49.358Z,6.93
2019-05-23T23:37:18.728Z,7.67
2019-05-23T23:39:48.030Z,7.43
2019-05-23T23:42:17.434Z,7.87
2019-05-23T23:44:45.815Z,7.67
2019-05-23T23:47:32.725Z,8.03
2019-05-23T23:50:19.867Z,7.70
2019-05-23T23:53:07.093Z,7.83
2019-05-23T23:55:53.701Z,7.70
2019-05-23T23:58:22.492Z,7.80
